createdAt,value
2024-03-05T00:00:32.650Z,97993.63
2024-03-05T00:02:59.595Z,97992.47
2024-03-05T00:05:26.613Z,97998.31
2024-03-05T00:07:54.556Z,97994.50
2024-03-05T00:10:21.622Z,97989.41
2024-03-05T00:12:48.601Z,97994.59
2024-03-05T00:15:17.019Z,97986.53
2024-03-05T00:17:44.377Z,97992.25
2024-03-05T00:20:19.893Z,97986.78
2024-03-05T00:22:51.721Z,97988.44
2024-03-05T00:25:19.540Z,97986.59
2024-03-05T00:27:46.885Z,97988.53
2024-03-05T00:30:15.327Z,97983.28
2024-03-05T00:32:42.702Z,97984.88
2024-03-05T00:35:11.009Z,97986.03
2024-03-05T00:37:39.164Z,97981.88
2024-03-05T00:40:09.873Z,97983.38
2024-03-05T00:42:37.633Z,97986.03
2024-03-05T00:45:09.039Z,97981.66
2024-03-05T00:47:37.332Z,97993.25
2024-03-05T00:50:05.987Z,97995.16
2024-03-05T00:52:33.719Z,97991.91
2024-03-05T00:55:01.654Z,97995.03
2024-03-05T00:57:30.166Z,97988.22
2024-03-05T00:59:57.731Z,97988.97
2024-03-05T01:02:24.984Z,97992.38
2024-03-05T01:04:54.582Z,97987.25
2024-03-05T01:07:22.271Z,97994.44
2024-03-05T01:09:50.612Z,97989.97
2024-03-05T01:12:18.012Z,97991.00
2024-03-05T01:14:45.900Z,97989.63
2024-03-05T01:17:13.915Z,97993.22
2024-03-05T01:19:41.219Z,97995.94
2024-03-05T01:22:08.406Z,97997.75
2024-03-05T01:24:35.600Z,97994.44
2024-03-05T01:27:02.641Z,98002.13
2024-03-05T01:29:31.939Z,97999.66
2024-03-05T01:32:01.249Z,98000.66
2024-03-05T01:34:31.355Z,97998.38
2024-03-05T01:36:58.917Z,98000.91
2024-03-05T01:39:28.108Z,98008.84
2024-03-05T01:41:56.508Z,98002.28
2024-03-05T01:44:24.249Z,98004.22
2024-03-05T01:46:55.083Z,97999.28
2024-03-05T01:49:23.063Z,97998.81
2024-03-05T01:51:50.630Z,98000.50
2024-03-05T01:54:19.419Z,98002.75
2024-03-05T01:56:55.494Z,97997.84
2024-03-05T01:59:23.028Z,97997.84
2024-03-05T02:01:50.303Z,97997.31
2024-03-05T02:04:18.522Z,98008.44
2024-03-05T02:06:45.907Z,98013.34
2024-03-05T02:09:12.949Z,97997.84
2024-03-05T02:11:52.248Z,97999.63
2024-03-05T02:14:24.327Z,98001.41
2024-03-05T02:16:51.688Z,98008.88
2024-03-05T02:19:18.749Z,98006.97
2024-03-05T02:21:46.091Z,98006.22
2024-03-05T02:24:13.001Z,98008.44
2024-03-05T02:26:40.289Z,98001.41
2024-03-05T02:29:10.226Z,98002.66
2024-03-05T02:31:37.347Z,98010.66
2024-03-05T02:34:06.106Z,98008.59
2024-03-05T02:36:33.178Z,98012.22
2024-03-05T02:39:00.064Z,98009.50
2024-03-05T02:41:26.861Z,98018.13
2024-03-05T02:43:53.726Z,98008.19
2024-03-05T02:46:20.721Z,98008.00
2024-03-05T02:48:47.709Z,98008.00
2024-03-05T02:51:14.863Z,98011.59
2024-03-05T02:53:41.652Z,98010.59
2024-03-05T02:56:11.224Z,98013.38
2024-03-05T02:58:38.334Z,98017.66
2024-03-05T03:01:05.259Z,98019.66
2024-03-05T03:03:32.177Z,98012.50
2024-03-05T03:05:58.944Z,98015.13
2024-03-05T03:08:25.778Z,98013.41
2024-03-05T03:10:52.669Z,98018.09
2024-03-05T03:13:19.605Z,98021.72
2024-03-05T03:15:48.662Z,98019.53
2024-03-05T03:18:15.668Z,98027.94
2024-03-05T03:20:42.869Z,98015.47
2024-03-05T03:23:09.658Z,98019.97
2024-03-05T03:25:38.074Z,98017.19
2024-03-05T03:28:09.090Z,98021.59
2024-03-05T03:30:35.921Z,98021.09
2024-03-05T03:33:05.831Z,98012.66
2024-03-05T03:35:33.330Z,98024.09
2024-03-05T03:38:00.233Z,98016.44
2024-03-05T03:40:27.229Z,98017.31
2024-03-05T03:42:54.113Z,98016.72
2024-03-05T03:45:21.239Z,98015.19
2024-03-05T03:47:48.600Z,98018.97
2024-03-05T03:50:17.040Z,98021.25
2024-03-05T03:52:44.507Z,98031.34
2024-03-05T03:55:11.422Z,98037.91
2024-03-05T03:57:38.469Z,98038.47
2024-03-05T04:00:09.376Z,98036.59
2024-03-05T04:02:41.749Z,98047.88
2024-03-05T04:05:10.844Z,98049.75
2024-03-05T04:07:38.013Z,98044.72
2024-03-05T04:10:07.427Z,98046.78
2024-03-05T04:12:35.308Z,98053.16
2024-03-05T04:15:02.255Z,98056.91
2024-03-05T04:17:29.298Z,98054.34
2024-03-05T04:19:57.473Z,98055.91
2024-03-05T04:22:24.807Z,98044.34
2024-03-05T04:24:56.601Z,98051.50
2024-03-05T04:27:25.336Z,98054.38
2024-03-05T04:29:57.824Z,98058.50
2024-03-05T04:32:28.630Z,98055.66
2024-03-05T04:35:02.068Z,98065.41
2024-03-05T04:37:32.052Z,98064.84
2024-03-05T04:39:59.616Z,98060.66
2024-03-05T04:42:27.180Z,98065.13
2024-03-05T04:44:56.753Z,98059.69
2024-03-05T04:47:26.147Z,98063.38
2024-03-05T04:49:53.325Z,98057.81
2024-03-05T04:52:20.301Z,98055.94
2024-03-05T04:54:47.140Z,98055.03
2024-03-05T04:57:14.283Z,98056.22
2024-03-05T04:59:41.837Z,98052.88
2024-03-05T05:02:08.707Z,98056.25
2024-03-05T05:04:38.855Z,98057.06
2024-03-05T05:07:08.968Z,98055.25
2024-03-05T05:09:37.545Z,98056.06
2024-03-05T05:12:04.584Z,98053.50
2024-03-05T05:14:32.375Z,98046.47
2024-03-05T05:17:01.004Z,98055.34
2024-03-05T05:19:27.870Z,98061.09
2024-03-05T05:21:54.707Z,98061.56
2024-03-05T05:24:21.549Z,98058.66
2024-03-05T05:26:48.466Z,98060.94
2024-03-05T05:29:23.979Z,98061.09
2024-03-05T05:32:00.778Z,98063.59
2024-03-05T05:34:27.686Z,98060.69
2024-03-05T05:36:54.843Z,98065.13
2024-03-05T05:39:25.854Z,98061.16
2024-03-05T05:41:54.327Z,98060.38
2024-03-05T05:44:21.575Z,98065.47
2024-03-05T05:46:48.402Z,98076.13
2024-03-05T05:49:21.012Z,98069.63
2024-03-05T05:51:48.570Z,98074.59
2024-03-05T05:54:16.570Z,98071.25
2024-03-05T05:56:44.802Z,98081.88
2024-03-05T05:59:12.804Z,98081.44
2024-03-05T06:01:39.786Z,98069.75
2024-03-05T06:04:10.289Z,98075.75
2024-03-05T06:06:40.279Z,98076.34
2024-03-05T06:09:10.697Z,98082.34
2024-03-05T06:11:38.529Z,98087.22
2024-03-05T06:14:07.724Z,98079.56
2024-03-05T06:16:34.996Z,98086.53
2024-03-05T06:19:02.383Z,98095.94
2024-03-05T06:21:29.212Z,98102.53
2024-03-05T06:23:56.329Z,98099.09
2024-03-05T06:26:23.157Z,98099.91
2024-03-05T06:28:50.040Z,98097.03
2024-03-05T06:31:17.225Z,98106.03
2024-03-05T06:33:45.244Z,98100.66
2024-03-05T06:36:13.598Z,98103.00
2024-03-05T06:38:40.847Z,98100.38
2024-03-05T06:41:10.895Z,98108.50
2024-03-05T06:43:38.699Z,98108.41
2024-03-05T06:46:06.120Z,98108.81
2024-03-05T06:48:34.026Z,98116.66
2024-03-05T06:51:06.171Z,98116.56
2024-03-05T06:53:51.556Z,98123.41
2024-03-05T06:56:36.992Z,98119.56
2024-03-05T06:59:05.084Z,98125.34
2024-03-05T07:01:33.862Z,98136.56
2024-03-05T07:04:07.775Z,98135.72
2024-03-05T07:06:35.398Z,98137.69
2024-03-05T07:09:02.824Z,98139.63
2024-03-05T07:11:30.685Z,98144.34
2024-03-05T07:13:58.969Z,98142.53
2024-03-05T07:16:26.119Z,98141.88
2024-03-05T07:18:56.776Z,98152.00
2024-03-05T07:21:25.367Z,98147.13
2024-03-05T07:23:54.826Z,98147.81
2024-03-05T07:26:22.828Z,98150.66
2024-03-05T07:28:49.888Z,98152.69
2024-03-05T07:31:18.649Z,98152.06
2024-03-05T07:33:49.090Z,98153.63
2024-03-05T07:36:19.053Z,98149.09
2024-03-05T07:38:46.011Z,98155.41
2024-03-05T07:41:18.351Z,98153.78
2024-03-05T07:43:53.573Z,98158.72
2024-03-05T07:46:20.855Z,98159.22
2024-03-05T07:48:47.841Z,98157.72
2024-03-05T07:51:21.472Z,98153.88
2024-03-05T07:53:51.779Z,98155.28
2024-03-05T07:56:18.635Z,98158.34
2024-03-05T07:58:45.935Z,98157.19
2024-03-05T08:01:13.050Z,98154.16
2024-03-05T08:03:42.358Z,98160.50
2024-03-05T08:06:09.257Z,98166.59
2024-03-05T08:08:36.005Z,98169.31
2024-03-05T08:11:03.049Z,98176.91
2024-03-05T08:13:30.101Z,98174.78
2024-03-05T08:15:57.048Z,98171.63
2024-03-05T08:18:23.841Z,98178.06
2024-03-05T08:20:51.214Z,98171.69
2024-03-05T08:23:18.063Z,98178.44
2024-03-05T08:25:49.338Z,98181.19
2024-03-05T08:28:16.253Z,98190.44
2024-03-05T08:30:43.906Z,98187.88
2024-03-05T08:33:11.187Z,98182.03
2024-03-05T08:35:38.272Z,98181.75
2024-03-05T08:38:05.215Z,98179.16
2024-03-05T08:40:36.856Z,98180.75
2024-03-05T08:43:05.139Z,98180.03
2024-03-05T08:45:32.845Z,98178.78
2024-03-05T08:48:00.418Z,98175.47
2024-03-05T08:50:30.479Z,98188.31
2024-03-05T08:52:59.506Z,98184.72
2024-03-05T08:55:27.680Z,98192.22
2024-03-05T08:57:55.678Z,98185.91
2024-03-05T09:00:33.335Z,98201.06
2024-03-05T09:03:09.582Z,98191.16
2024-03-05T09:05:37.175Z,98192.81
2024-03-05T09:08:06.361Z,98198.34
2024-03-05T09:10:33.618Z,98199.25
2024-03-05T09:13:01.169Z,98204.50
2024-03-05T09:15:28.036Z,98198.38
2024-03-05T09:17:55.020Z,98210.66
2024-03-05T09:20:22.046Z,98213.94
2024-03-05T09:22:49.014Z,98208.34
2024-03-05T09:25:16.926Z,98197.75
2024-03-05T09:27:46.500Z,98207.00
2024-03-05T09:30:16.593Z,98206.00
2024-03-05T09:32:45.504Z,98206.91
2024-03-05T09:35:14.102Z,98198.75
2024-03-05T09:37:45.604Z,98204.41
2024-03-05T09:40:19.053Z,98207.56
2024-03-05T09:42:46.714Z,98203.09
2024-03-05T09:45:18.695Z,98200.53
2024-03-05T09:47:48.568Z,98208.25
2024-03-05T09:50:18.039Z,98207.47
2024-03-05T09:52:49.640Z,98206.72
2024-03-05T09:55:18.820Z,98211.97
2024-03-05T09:57:49.655Z,98215.09
2024-03-05T10:00:18.787Z,98205.00
2024-03-05T10:02:53.012Z,98213.81
2024-03-05T10:05:21.363Z,98215.16
2024-03-05T10:07:49.789Z,98217.91
2024-03-05T10:10:22.560Z,98216.38
2024-03-05T10:12:52.725Z,98220.97
2024-03-05T10:15:23.858Z,98229.00
2024-03-05T10:17:54.006Z,98229.00
2024-03-05T10:20:47.884Z,98235.44
2024-03-05T10:23:16.629Z,98232.75
2024-03-05T10:25:44.048Z,98233.25
2024-03-05T10:28:11.179Z,98228.53
2024-03-05T10:30:39.157Z,98231.94
2024-03-05T10:33:11.448Z,98233.56
2024-03-05T10:35:39.702Z,98225.53
2024-03-05T10:38:13.904Z,98223.69
2024-03-05T10:40:45.773Z,98228.06
2024-03-05T10:43:16.966Z,98225.34
2024-03-05T10:45:46.146Z,98225.44
2024-03-05T10:48:16.308Z,98228.53
2024-03-05T10:50:47.944Z,98225.44
2024-03-05T10:53:17.603Z,98226.69
2024-03-05T10:55:46.064Z,98231.09
2024-03-05T10:58:14.922Z,98232.34
2024-03-05T11:00:44.875Z,98232.59
2024-03-05T11:03:14.263Z,98236.47
2024-03-05T11:05:57.768Z,98225.31
2024-03-05T11:08:30.326Z,98232.78
2024-03-05T11:11:07.086Z,98218.41
2024-03-05T11:13:37.169Z,98214.19
2024-03-05T11:16:05.250Z,98207.00
2024-03-05T11:18:36.684Z,98180.13
2024-03-05T11:21:16.659Z,98139.81
2024-03-05T11:23:54.011Z,98128.53
2024-03-05T11:26:23.555Z,98110.06
2024-03-05T11:28:54.357Z,98115.03
2024-03-05T11:31:22.293Z,98118.59
2024-03-05T11:34:04.848Z,98126.91
2024-03-05T11:36:37.883Z,98132.09
2024-03-05T11:39:05.026Z,98138.91
2024-03-05T11:41:33.715Z,98158.53
2024-03-05T11:44:01.218Z,98163.47
2024-03-05T11:46:47.907Z,98159.38
2024-03-05T11:49:16.157Z,98159.56
2024-03-05T11:51:45.288Z,98155.44
2024-03-05T11:54:19.383Z,98148.84
2024-03-05T11:56:57.433Z,98145.47
2024-03-05T11:59:40.871Z,98108.88
2024-03-05T12:02:11.564Z,98087.03
2024-03-05T12:04:42.812Z,98077.53
2024-03-05T12:07:13.997Z,98066.81
2024-03-05T12:09:41.743Z,98077.19
2024-03-05T12:12:14.418Z,98085.63
2024-03-05T12:14:55.894Z,98101.69
2024-03-05T12:17:25.283Z,98108.31
2024-03-05T12:20:09.548Z,98114.63
2024-03-05T12:22:41.492Z,98129.00
2024-03-05T12:25:09.441Z,98125.41
2024-03-05T12:27:38.539Z,98129.47
2024-03-05T12:30:07.724Z,98130.53
2024-03-05T12:32:35.094Z,98139.34
2024-03-05T12:35:03.218Z,98138.75
2024-03-05T12:37:31.123Z,98141.50
2024-03-05T12:40:00.645Z,98146.16
2024-03-05T12:42:27.565Z,98143.19
2024-03-05T12:45:18.554Z,98153.22
2024-03-05T12:48:00.560Z,98162.19
2024-03-05T12:50:30.492Z,98161.53
2024-03-05T12:53:06.080Z,98159.09
2024-03-05T12:55:34.018Z,98161.56
2024-03-05T12:58:09.787Z,98154.84
2024-03-05T13:00:37.618Z,98153.00
2024-03-05T13:03:08.569Z,98142.44
2024-03-05T13:05:36.893Z,98154.56
2024-03-05T13:08:05.662Z,98151.44
2024-03-05T13:10:33.689Z,98151.25
2024-03-05T13:13:00.857Z,98152.72
2024-03-05T13:15:27.858Z,98157.09
2024-03-05T13:17:54.726Z,98163.72
2024-03-05T13:20:21.613Z,98162.44
2024-03-05T13:22:58.786Z,98168.75
2024-03-05T13:25:29.794Z,98169.56
2024-03-05T13:27:56.833Z,98168.91
2024-03-05T13:30:27.757Z,98160.16
2024-03-05T13:35:26.268Z,98175.81
2024-03-05T13:37:53.118Z,98179.69
2024-03-05T13:40:20.585Z,98180.00
2024-03-05T13:42:49.475Z,98178.66
2024-03-05T13:45:20.197Z,98176.63
2024-03-05T13:47:47.261Z,98174.72
2024-03-05T13:50:17.407Z,98171.75
2024-03-05T13:52:46.345Z,98169.50
2024-03-05T13:55:16.982Z,98160.47
2024-03-05T13:57:43.744Z,98151.97
2024-03-05T14:00:15.145Z,98148.78
2024-03-05T14:02:41.979Z,98153.22
2024-03-05T14:05:12.289Z,98148.69
2024-03-05T14:07:39.619Z,98161.84
2024-03-05T14:10:07.264Z,98150.63
2024-03-05T14:12:36.396Z,98157.75
2024-03-05T14:15:09.769Z,98153.44
2024-03-05T14:17:38.070Z,98174.94
2024-03-05T14:20:08.633Z,98178.97
2024-03-05T14:22:39.850Z,98187.63
2024-03-05T14:25:08.097Z,98191.94
2024-03-05T14:27:34.970Z,98177.50
2024-03-05T14:30:01.767Z,98185.75
2024-03-05T14:32:28.612Z,98195.47
2024-03-05T14:34:58.513Z,98201.56
2024-03-05T14:37:25.679Z,98200.88
2024-03-05T14:39:55.102Z,98187.19
2024-03-05T14:42:21.935Z,98190.56
2024-03-05T14:44:48.815Z,98200.41
2024-03-05T14:47:15.966Z,98197.81
2024-03-05T14:49:43.468Z,98201.72
2024-03-05T14:52:10.685Z,98193.94
2024-03-05T14:54:37.533Z,98205.25
2024-03-05T14:57:04.676Z,98184.13
2024-03-05T14:59:31.468Z,98183.84
2024-03-05T15:01:58.405Z,98186.78
2024-03-05T15:04:25.355Z,98180.38
2024-03-05T15:06:54.427Z,98173.47
2024-03-05T15:09:21.274Z,98171.28
2024-03-05T15:11:48.375Z,98176.97
2024-03-05T15:14:15.223Z,98179.53
2024-03-05T15:16:42.162Z,98186.91
2024-03-05T15:19:09.018Z,98174.31
2024-03-05T15:21:35.825Z,98186.28
2024-03-05T15:24:05.259Z,98187.63
2024-03-05T15:26:32.552Z,98190.94
2024-03-05T15:28:59.890Z,98184.84
2024-03-05T15:31:27.029Z,98192.53
2024-03-05T15:33:54.756Z,98192.59
2024-03-05T15:36:21.613Z,98192.84
2024-03-05T15:38:48.628Z,98184.94
2024-03-05T15:41:16.432Z,98197.34
2024-03-05T15:43:43.471Z,98193.66
2024-03-05T15:46:10.395Z,98201.22
2024-03-05T15:48:37.218Z,98209.03
2024-03-05T15:51:04.284Z,98205.00
2024-03-05T15:53:31.296Z,98211.53
2024-03-05T15:56:13.346Z,98212.19
2024-03-05T15:58:43.856Z,98212.66
2024-03-05T16:01:11.703Z,98205.44
2024-03-05T16:03:57.466Z,98215.25
2024-03-05T16:06:31.353Z,98212.59
2024-03-05T16:08:58.923Z,98223.63
2024-03-05T16:11:26.422Z,98220.94
2024-03-05T16:13:54.889Z,98221.81
2024-03-05T16:16:23.616Z,98224.94
2024-03-05T16:18:50.338Z,98233.06
2024-03-05T16:21:17.581Z,98228.66
2024-03-05T16:23:44.874Z,98226.63
2024-03-05T16:26:11.774Z,98235.72
2024-03-05T16:28:39.477Z,98237.38
2024-03-05T16:31:06.455Z,98230.50
2024-03-05T16:33:33.948Z,98229.88
2024-03-05T16:36:00.869Z,98235.03
2024-03-05T16:38:29.982Z,98233.81
2024-03-05T16:40:57.860Z,98235.34
2024-03-05T16:43:25.311Z,98239.88
2024-03-05T16:45:53.455Z,98240.88
2024-03-05T16:48:20.539Z,98242.66
2024-03-05T16:50:47.417Z,98247.25
2024-03-05T16:53:14.323Z,98261.88
2024-03-05T16:55:43.013Z,98253.72
2024-03-05T16:58:13.760Z,98259.78
2024-03-05T17:00:53.478Z,98251.19
2024-03-05T17:03:22.584Z,98261.28
2024-03-05T17:05:53.713Z,98261.44
2024-03-05T17:08:21.450Z,98261.47
2024-03-05T17:10:49.496Z,98256.56
2024-03-05T17:13:22.472Z,98263.56
2024-03-05T17:15:55.979Z,98255.25
2024-03-05T17:18:24.576Z,98250.72
2024-03-05T17:20:52.148Z,98251.31
2024-03-05T17:23:23.309Z,98267.38
2024-03-05T17:25:52.680Z,98266.00
2024-03-05T17:28:19.789Z,98259.00
2024-03-05T17:30:47.190Z,98267.25
2024-03-05T17:33:15.812Z,98277.41
2024-03-05T17:35:43.501Z,98275.00
2024-03-05T17:38:14.615Z,98272.78
2024-03-05T17:40:42.101Z,98288.19
2024-03-05T17:43:09.311Z,98289.16
2024-03-05T17:45:36.290Z,98287.50
2024-03-05T17:48:07.057Z,98298.31
2024-03-05T17:50:37.845Z,98301.22
2024-03-05T17:53:06.458Z,98306.16
2024-03-05T17:55:35.877Z,98310.66
2024-03-05T17:58:05.246Z,98308.25
2024-03-05T18:00:42.585Z,98312.81
2024-03-05T18:03:11.951Z,98315.66
2024-03-05T18:05:39.852Z,98322.34
2024-03-05T18:08:07.284Z,98334.91
2024-03-05T18:10:35.864Z,98332.53
2024-03-05T18:13:05.953Z,98338.00
2024-03-05T18:15:33.162Z,98346.84
2024-03-05T18:18:00.115Z,98343.88
2024-03-05T18:20:29.856Z,98338.41
2024-03-05T18:23:00.569Z,98339.53
2024-03-05T18:25:34.917Z,98342.28
2024-03-05T18:28:02.672Z,98346.06
2024-03-05T18:30:29.650Z,98352.41
2024-03-05T18:32:57.001Z,98349.88
2024-03-05T18:35:24.804Z,98351.91
2024-03-05T18:37:51.716Z,98353.47
2024-03-05T18:40:18.749Z,98355.25
2024-03-05T18:42:49.515Z,98356.78
2024-03-05T18:45:17.812Z,98365.22
2024-03-05T18:47:54.807Z,98365.22
2024-03-05T18:50:30.298Z,98367.78
2024-03-05T18:52:58.434Z,98368.00
2024-03-05T18:55:25.748Z,98366.56
2024-03-05T18:57:53.804Z,98370.78
2024-03-05T19:00:20.823Z,98366.31
2024-03-05T19:02:52.257Z,98384.06
2024-03-05T19:05:20.201Z,98387.53
2024-03-05T19:07:49.028Z,98380.47
2024-03-05T19:10:17.879Z,98369.06
2024-03-05T19:12:45.440Z,98379.59
2024-03-05T19:15:18.520Z,98376.03
2024-03-05T19:17:48.830Z,98369.38
2024-03-05T19:20:16.247Z,98378.06
2024-03-05T19:22:43.784Z,98369.28
2024-03-05T19:25:12.814Z,98375.28
2024-03-05T19:27:41.233Z,98370.97
2024-03-05T19:30:11.680Z,98374.03
2024-03-05T19:32:40.426Z,98374.06
2024-03-05T19:35:11.405Z,98366.16
2024-03-05T19:37:42.974Z,98369.81
2024-03-05T19:40:18.132Z,98373.22
2024-03-05T19:42:48.021Z,98370.41
2024-03-05T19:45:15.224Z,98380.13
2024-03-05T19:47:42.501Z,98375.94
2024-03-05T19:50:14.520Z,98377.75
2024-03-05T19:52:41.690Z,98391.16
2024-03-05T19:55:09.438Z,98390.25
2024-03-05T19:57:36.657Z,98384.78
2024-03-05T20:00:13.072Z,98390.13
2024-03-05T20:02:40.361Z,98385.47
2024-03-05T20:05:07.617Z,98381.34
2024-03-05T20:07:34.552Z,98388.22
2024-03-05T20:10:02.243Z,98389.94
2024-03-05T20:12:29.409Z,98387.28
2024-03-05T20:14:56.403Z,98379.13
2024-03-05T20:17:25.417Z,98384.25
2024-03-05T20:19:54.084Z,98380.75
2024-03-05T20:22:21.102Z,98386.06
2024-03-05T20:24:48.555Z,98391.28
2024-03-05T20:27:17.065Z,98394.72
2024-03-05T20:29:43.938Z,98400.06
2024-03-05T20:32:11.022Z,98386.88
2024-03-05T20:34:39.393Z,98396.56
2024-03-05T20:37:06.436Z,98393.84
2024-03-05T20:39:33.236Z,98396.50
2024-03-05T20:42:00.091Z,98401.69
2024-03-05T20:44:26.914Z,98408.94
2024-03-05T20:46:53.813Z,98408.19
2024-03-05T20:49:20.667Z,98406.16
2024-03-05T20:51:47.463Z,98411.47
2024-03-05T20:54:14.463Z,98408.72
2024-03-05T20:56:41.310Z,98413.00
2024-03-05T20:59:08.147Z,98412.81
2024-03-05T21:01:37.797Z,98409.09
2024-03-05T21:04:06.184Z,98415.25
2024-03-05T21:06:33.840Z,98414.66
2024-03-05T21:09:01.241Z,98421.63
2024-03-05T21:11:28.299Z,98425.44
2024-03-05T21:13:56.204Z,98420.03
2024-03-05T21:16:23.156Z,98423.75
2024-03-05T21:18:51.219Z,98424.25
2024-03-05T21:21:18.168Z,98426.94
2024-03-05T21:23:45.150Z,98427.72
2024-03-05T21:26:27.424Z,98432.88
2024-03-05T21:29:01.193Z,98420.25
2024-03-05T21:31:30.040Z,98418.47
2024-03-05T21:33:56.962Z,98421.06
2024-03-05T21:36:27.346Z,98421.19
2024-03-05T21:38:54.555Z,98420.41
2024-03-05T21:41:21.395Z,98425.69
2024-03-05T21:43:48.370Z,98425.81
2024-03-05T21:46:15.237Z,98421.41
2024-03-05T21:48:44.859Z,98423.25
2024-03-05T21:51:15.573Z,98428.47
2024-03-05T21:53:43.876Z,98438.28
2024-03-05T21:56:11.222Z,98432.19
2024-03-05T21:58:39.751Z,98439.03
2024-03-05T22:01:06.892Z,98448.00
2024-03-05T22:03:33.760Z,98442.25
2024-03-05T22:06:08.105Z,98446.66
2024-03-05T22:08:39.245Z,98448.41
2024-03-05T22:11:06.128Z,98456.38
2024-03-05T22:13:33.059Z,98460.88
2024-03-05T22:16:00.181Z,98457.78
2024-03-05T22:18:27.797Z,98459.06
2024-03-05T22:20:57.245Z,98469.09
2024-03-05T22:23:24.216Z,98468.19
2024-03-05T22:25:51.066Z,98457.53
2024-03-05T22:28:18.095Z,98459.28
2024-03-05T22:30:45.194Z,98461.69
2024-03-05T22:33:12.237Z,98469.72
2024-03-05T22:35:39.461Z,98466.34
2024-03-05T22:38:06.739Z,98459.50
2024-03-05T22:40:33.631Z,98462.03
2024-03-05T22:43:00.444Z,98463.16
2024-03-05T22:45:28.940Z,98458.72
2024-03-05T22:47:55.873Z,98459.53
2024-03-05T22:50:23.108Z,98462.31
2024-03-05T22:52:52.054Z,98458.84
2024-03-05T22:55:19.074Z,98459.03
2024-03-05T22:57:45.971Z,98459.66
2024-03-05T23:00:23.839Z,98459.09
2024-03-05T23:02:55.000Z,98454.81
2024-03-05T23:05:22.343Z,98452.31
2024-03-05T23:07:49.320Z,98463.66
2024-03-05T23:10:17.555Z,98457.28
2024-03-05T23:12:45.120Z,98466.13
2024-03-05T23:15:16.632Z,98466.13
2024-03-05T23:17:44.429Z,98469.75
2024-03-05T23:20:12.419Z,98471.56
2024-03-05T23:22:40.292Z,98470.03
2024-03-05T23:25:08.164Z,98477.09
2024-03-05T23:27:35.569Z,98491.25
2024-03-05T23:30:04.117Z,98488.59
2024-03-05T23:32:32.359Z,98493.97
2024-03-05T23:35:00.210Z,98486.75
2024-03-05T23:37:27.188Z,98506.13
2024-03-05T23:39:55.003Z,98505.25
2024-03-05T23:42:21.930Z,98508.00
2024-03-05T23:44:48.891Z,98506.28
2024-03-05T23:47:16.314Z,98514.31
2024-03-05T23:49:44.937Z,98516.13
2024-03-05T23:52:11.852Z,98532.75
2024-03-05T23:54:38.616Z,98529.28
2024-03-05T23:57:05.483Z,98528.22
2024-03-05T23:59:32.364Z,98530.78
